| time (UTC) | temp F | wind direction | speed MPH | gust MPH | rain 1hr in | rain 24hr in | rain mn in | humidity % | barometer mb |
| 20260905220005 | 95 | 159 | 3.0 | 8.0 | 0.00 | 0.00 | 0.00 | 42 | 1008.4 |
| 20260905214506 | 95 | 123 | 5.0 | 11.0 | 0.00 | 0.00 | 0.00 | 41 | 1008.5 |
| 20260905213002 | 97 | 86 | 3.0 | 8.0 | 0.00 | 0.00 | 0.00 | 40 | 1008.6 |
| 20260905211601 | 96 | 49 | 5.0 | 8.0 | 0.00 | 0.00 | 0.00 | 41 | 1008.8 |
| 20260905210115 | 96 | 63 | 5.0 | 11.0 | 0.00 | 0.00 | 0.00 | 40 | 1009.1 |
| 20260905204602 | 96 | 62 | 3.0 | 9.0 | 0.00 | 0.00 | 0.00 | 40 | 1009.2 |
| 20260905203056 | 96 | 85 | 6.0 | 9.0 | 0.00 | 0.00 | 0.00 | 40 | 1009.4 |
| 20260905201555 | 94 | 77 | 5.0 | 10.0 | 0.00 | 0.00 | 0.00 | 43 | 1009.6 |
| 20260905200053 | 97 | 167 | 3.0 | 10.0 | 0.00 | 0.00 | 0.00 | 41 | 1009.9 |
| 20260905194557 | 97 | 182 | 5.0 | 9.0 | 0.00 | 0.00 | 0.00 | 41 | 1010.1 |
| 20260905193045 | 95 | 159 | 6.0 | 12.0 | 0.00 | 0.00 | 0.00 | 43 | 1010.3 |
| 20260905191545 | 93 | 63 | 3.0 | 10.0 | 0.00 | 0.00 | 0.00 | 44 | 1010.6 |
| 20260905190041 | 94 | 42 | 0.0 | 11.0 | 0.00 | 0.00 | 0.00 | 44 | 1010.9 |
| 20260905184557 | 95 | 116 | 2.0 | 9.0 | 0.00 | 0.00 | 0.00 | 43 | 1011.2 |
| 20260905183047 | 95 | 246 | 1.0 | 12.0 | 0.00 | 0.00 | 0.00 | 42 | 1011.4 |
| 20260905181546 | 95 | 115 | 5.0 | 10.0 | 0.00 | 0.00 | 0.00 | 43 | 1011.5 |
| 20260905180036 | 93 | 49 | 9.0 | 13.0 | 0.00 | 0.00 | 0.00 | 46 | 1011.9 |
| 20260905174535 | 93 | 144 | 3.0 | 11.0 | 0.00 | 0.00 | 0.00 | 47 | 1012.1 |
| 20260905173034 | 92 | 176 | 4.0 | 11.0 | 0.00 | 0.00 | 0.00 | 49 | 1012.2 |
| 20260905171531 | 93 | 163 | 4.0 | 8.0 | 0.00 | 0.00 | 0.00 | 49 | 1012.3 |
| 20260905170029 | 92 | 93 | 3.0 | 7.0 | 0.00 | 0.00 | 0.00 | 50 | 1012.5 |
| 20260905164527 | 91 | 134 | 4.0 | 9.0 | 0.00 | 0.00 | 0.00 | 50 | 1012.6 |
| 20260905163025 | 90 | 211 | 4.0 | 7.0 | 0.00 | 0.00 | 0.00 | 53 | 1012.6 |
| 20260905161522 | 90 | 129 | 2.0 | 6.0 | 0.00 | 0.00 | 0.00 | 54 | 1012.5 |
| 20260905160027 | 89 | 227 | 4.0 | 8.0 | 0.00 | 0.00 | 0.00 | 56 | 1012.5 |
| 20260905154517 | 88 | 253 | 1.0 | 5.0 | 0.00 | 0.00 | 0.00 | 60 | 1012.5 |
| 20260905153017 | 87 | 213 | 5.0 | 8.0 | 0.00 | 0.00 | 0.00 | 60 | 1012.6 |
| 20260905151512 | 86 | 235 | 3.0 | 7.0 | 0.00 | 0.00 | 0.00 | 63 | 1012.4 |
| 20260905150008 | 85 | 217 | 3.0 | 8.0 | 0.00 | 0.00 | 0.00 | 68 | 1012.4 |
| 20260905144507 | 83 | 247 | 3.0 | 7.0 | 0.00 | 0.00 | 0.00 | 71 | 1012.4 |
| 20260905143004 | 82 | 207 | 4.0 | 8.0 | 0.00 | 0.00 | 0.00 | 75 | 1012.5 |
| 20260905141503 | 81 | 230 | 4.0 | 7.0 | 0.00 | 0.00 | 0.00 | 78 | 1012.6 |
| 20260905140001 | 80 | 215 | 4.0 | 8.0 | 0.00 | 0.00 | 0.00 | 81 | 1012.5 |
| 20260905134600 | 80 | 235 | 4.0 | 8.0 | 0.00 | 0.00 | 0.00 | 81 | 1012.3 |
| 20260905133058 | 79 | 205 | 4.0 | 6.0 | 0.00 | 0.00 | 0.00 | 83 | 1012.2 |
| 20260905131603 | 78 | 182 | 3.0 | 7.0 | 0.00 | 0.00 | 0.00 | 84 | 1012.0 |
| 20260905130056 | 77 | 167 | 2.0 | 6.0 | 0.00 | 0.00 | 0.00 | 86 | 1011.8 |
| 20260905124555 | 76 | 150 | 1.0 | 4.0 | 0.00 | 0.00 | 0.00 | 86 | 1011.7 |
| 20260905123058 | 75 | 140 | 2.0 | 4.0 | 0.00 | 0.00 | 0.00 | 87 | 1011.7 |
| 20260905121600 | 75 | 155 | 3.0 | 5.0 | 0.00 | 0.00 | 0.00 | 87 | 1011.6 |
| 20260905120052 | 75 | 142 | 2.0 | 5.0 | 0.00 | 0.00 | 0.00 | 87 | 1011.6 |
| 20260905114551 | 75 | 201 | 0.0 | 2.0 | 0.00 | 0.00 | 0.00 | 86 | 1011.5 |
| 20260905113052 | 75 | 193 | 1.0 | 3.0 | 0.00 | 0.00 | 0.00 | 86 | 1011.6 |
| 20260905111639 | 75 | 175 | 2.0 | 4.0 | 0.00 | 0.00 | 0.00 | 86 | 1011.5 |
| 20260905110048 | 75 | 150 | 0.0 | 2.0 | 0.00 | 0.00 | 0.00 | 86 | 1011.6 |
| 20260905104545 | 75 | 157 | 0.0 | 1.0 | 0.00 | 0.00 | 0.00 | 86 | 1011.4 |
| 20260905103045 | 75 | 186 | 0.0 | 3.0 | 0.00 | 0.00 | 0.00 | 86 | 1011.4 |
| 20260905101550 | 76 | 213 | 2.0 | 4.0 | 0.00 | 0.00 | 0.00 | 85 | 1011.3 |
| 20260905100047 | 76 | 198 | 3.0 | 6.0 | 0.00 | 0.00 | 0.00 | 84 | 1011.2 |
| 20260905094539 | 77 | 190 | 3.0 | 7.0 | 0.00 | 0.00 | 0.00 | 84 | 1011.2 |
| 20260905093039 | 77 | 202 | 3.0 | 7.0 | 0.00 | 0.00 | 0.00 | 84 | 1011.3 |
| 20260905091538 | 77 | 180 | 3.0 | 6.0 | 0.00 | 0.00 | 0.00 | 84 | 1011.3 |
| 20260905090039 | 77 | 192 | 2.0 | 5.0 | 0.00 | 0.00 | 0.00 | 83 | 1011.3 |
| 20260905084542 | 78 | 179 | 2.0 | 6.0 | 0.00 | 0.00 | 0.00 | 82 | 1011.1 |
| 20260905083034 | 78 | 194 | 3.0 | 6.0 | 0.00 | 0.00 | 0.00 | 82 | 1010.9 |
| 20260905081533 | 78 | 182 | 3.0 | 6.0 | 0.00 | 0.00 | 0.00 | 81 | 1011.0 |
| 20260905080039 | 79 | 214 | 2.0 | 4.0 | 0.00 | 0.00 | 0.00 | 80 | 1011.0 |
| 20260905074528 | 79 | 174 | 3.0 | 8.0 | 0.00 | 0.00 | 0.00 | 79 | 1011.0 |
| 20260905073026 | 80 | 172 | 5.0 | 11.0 | 0.00 | 0.00 | 0.00 | 78 | 1011.1 |
| 20260905071528 | 80 | 174 | 3.0 | 8.0 | 0.00 | 0.00 | 0.00 | 77 | 1011.2 |
| 20260905070023 | 80 | 172 | 4.0 | 8.0 | 0.00 | 0.00 | 0.00 | 76 | 1011.4 |
| 20260905064521 | 80 | 193 | 5.0 | 10.0 | 0.00 | 0.00 | 0.00 | 75 | 1011.4 |
| 20260905063021 | 81 | 187 | 5.0 | 9.0 | 0.00 | 0.00 | 0.00 | 75 | 1011.4 |
| 20260905061525 | 81 | 158 | 3.0 | 10.0 | 0.00 | 0.00 | 0.00 | 73 | 1011.5 |
| 20260905060025 | 81 | 182 | 4.0 | 9.0 | 0.00 | 0.00 | 0.00 | 72 | 1011.5 |
| 20260905054515 | 82 | 162 | 5.0 | 8.0 | 0.00 | 0.22 | 0.00 | 72 | 1011.3 |
| 20260905053013 | 82 | 150 | 5.0 | 11.0 | 0.00 | 0.22 | 0.00 | 71 | 1011.3 |
| 20260905051510 | 82 | 163 | 3.0 | 9.0 | 0.00 | 0.22 | 0.00 | 71 | 1011.2 |
| 20260905050015 | 83 | 169 | 4.0 | 12.0 | 0.00 | 0.22 | 0.00 | 70 | 1011.1 |
| 20260905044509 | 83 | 182 | 6.0 | 11.0 | 0.00 | 0.22 | 0.22 | 69 | 1011.1 |
| 20260905043008 | 83 | 162 | 5.0 | 9.0 | 0.00 | 0.22 | 0.22 | 68 | 1011.0 |
| 20260905041507 | 84 | 150 | 4.0 | 8.0 | 0.00 | 0.22 | 0.22 | 66 | 1011.2 |
| 20260905040008 | 84 | 140 | 5.0 | 11.0 | 0.00 | 0.22 | 0.22 | 65 | 1011.3 |
| 20260905034507 | 85 | 165 | 5.0 | 10.0 | 0.00 | 0.22 | 0.22 | 62 | 1011.2 |
| 20260905033013 | 85 | 196 | 6.0 | 10.0 | 0.00 | 0.22 | 0.22 | 61 | 1011.1 |
| 20260905031505 | 86 | 161 | 5.0 | 12.0 | 0.00 | 0.22 | 0.22 | 59 | 1011.1 |
| 20260905030007 | 86 | 159 | 4.0 | 12.0 | 0.00 | 0.22 | 0.22 | 57 | 1011.0 |
| 20260905024506 | 87 | 155 | 4.0 | 9.0 | 0.00 | 0.22 | 0.22 | 56 | 1010.8 |
| 20260905023005 | 87 | 126 | 3.0 | 8.0 | 0.00 | 0.22 | 0.22 | 55 | 1010.6 |
| 20260905021504 | 88 | 143 | 3.0 | 8.0 | 0.00 | 0.22 | 0.22 | 54 | 1010.3 |
| 20260905020004 | 88 | 132 | 4.0 | 8.0 | 0.00 | 0.22 | 0.22 | 53 | 1010.1 |
| 20260905014503 | 89 | 110 | 5.0 | 7.0 | 0.00 | 0.22 | 0.22 | 53 | 1009.8 |
| 20260905013005 | 90 | 121 | 4.0 | 9.0 | 0.00 | 0.22 | 0.22 | 52 | 1009.6 |
| 20260905011503 | 90 | 129 | 6.0 | 11.0 | 0.00 | 0.22 | 0.22 | 51 | 1009.4 |
| 20260905010002 | 91 | 123 | 7.0 | 13.0 | 0.00 | 0.22 | 0.22 | 50 | 1009.3 |
| 20260905004502 | 92 | 121 | 5.0 | 11.0 | 0.00 | 0.22 | 0.22 | 48 | 1009.1 |
| 20260905003003 | 92 | 132 | 6.0 | 12.0 | 0.00 | 0.22 | 0.22 | 47 | 1009.0 |
| 20260905001602 | 93 | 156 | 7.0 | 13.0 | 0.00 | 0.22 | 0.22 | 46 | 1008.8 |
| 20260905000128 | 94 | 130 | 6.0 | 12.0 | 0.00 | 0.22 | 0.22 | 44 | 1008.7 |
| 20260904234559 | 95 | 177 | 7.0 | 12.0 | 0.00 | 0.22 | 0.22 | 43 | 1008.7 |
| 20260904233059 | 94 | 142 | 4.0 | 11.0 | 0.00 | 0.22 | 0.22 | 44 | 1008.8 |
| 20260904231557 | 95 | 163 | 4.0 | 12.0 | 0.00 | 0.22 | 0.22 | 45 | 1008.8 |
| 20260904230111 | 96 | 161 | 6.0 | 13.0 | 0.00 | 0.22 | 0.22 | 43 | 1008.8 |
| 20260904224555 | 94 | 169 | 4.0 | 11.0 | 0.00 | 0.22 | 0.22 | 45 | 1008.9 |
| 20260904223056 | 96 | 132 | 9.0 | 15.0 | 0.00 | 0.22 | 0.22 | 42 | 1008.9 |
| 20260904221553 | 97 | 194 | 4.0 | 10.0 | 0.00 | 0.22 | 0.22 | 40 | 1009.0 |